sensor_id;sensor_type;location;lat;lon;timestamp;temperature;humidity
25342;DHT22;13298;48.792;9.154;2023-01-28T00:00:46;0.30;99.90
25342;DHT22;13298;48.792;9.154;2023-01-28T00:03:12;0.30;99.90
25342;DHT22;13298;48.792;9.154;2023-01-28T00:05:38;0.30;99.90
25342;DHT22;13298;48.792;9.154;2023-01-28T00:08:04;0.30;99.90
25342;DHT22;13298;48.792;9.154;2023-01-28T00:10:29;0.30;99.90
25342;DHT22;13298;48.792;9.154;2023-01-28T00:12:55;0.30;99.90
25342;DHT22;13298;48.792;9.154;2023-01-28T00:15:21;0.30;99.90
25342;DHT22;13298;48.792;9.154;2023-01-28T00:17:47;0.20;99.90
25342;DHT22;13298;48.792;9.154;2023-01-28T00:20:12;0.30;99.90
25342;DHT22;13298;48.792;9.154;2023-01-28T00:22:38;0.30;99.90
25342;DHT22;13298;48.792;9.154;2023-01-28T00:25:04;0.30;99.90
25342;DHT22;13298;48.792;9.154;2023-01-28T00:27:30;0.30;99.90
25342;DHT22;13298;48.792;9.154;2023-01-28T00:29:55;0.30;99.90
25342;DHT22;13298;48.792;9.154;2023-01-28T00:32:21;0.30;99.90
25342;DHT22;13298;48.792;9.154;2023-01-28T00:34:47;0.30;99.90
25342;DHT22;13298;48.792;9.154;2023-01-28T00:37:14;0.30;99.90
25342;DHT22;13298;48.792;9.154;2023-01-28T00:39:40;0.30;99.90
25342;DHT22;13298;48.792;9.154;2023-01-28T00:42:05;0.30;99.90
25342;DHT22;13298;48.792;9.154;2023-01-28T00:44:31;0.30;99.90
25342;DHT22;13298;48.792;9.154;2023-01-28T00:46:57;0.30;99.90
25342;DHT22;13298;48.792;9.154;2023-01-28T00:49:22;0.30;99.90
25342;DHT22;13298;48.792;9.154;2023-01-28T00:51:48;0.30;99.90
25342;DHT22;13298;48.792;9.154;2023-01-28T00:54:14;0.30;99.90
25342;DHT22;13298;48.792;9.154;2023-01-28T00:56:39;0.30;99.90
25342;DHT22;13298;48.792;9.154;2023-01-28T00:59:05;0.30;99.90
25342;DHT22;13298;48.792;9.154;2023-01-28T01:01:31;0.30;99.90
25342;DHT22;13298;48.792;9.154;2023-01-28T01:03:57;0.30;99.90
25342;DHT22;13298;48.792;9.154;2023-01-28T01:06:28;0.30;99.90
25342;DHT22;13298;48.792;9.154;2023-01-28T01:08:55;0.30;99.90
25342;DHT22;13298;48.792;9.154;2023-01-28T01:11:21;0.30;99.90
25342;DHT22;13298;48.792;9.154;2023-01-28T01:13:54;0.30;99.90
25342;DHT22;13298;48.792;9.154;2023-01-28T01:16:23;0.30;99.90
25342;DHT22;13298;48.792;9.154;2023-01-28T01:18:53;0.30;99.90
25342;DHT22;13298;48.792;9.154;2023-01-28T01:21:22;0.30;99.90
25342;DHT22;13298;48.792;9.154;2023-01-28T01:23:50;0.30;99.90
25342;DHT22;13298;48.792;9.154;2023-01-28T01:26:16;0.30;99.90
25342;DHT22;13298;48.792;9.154;2023-01-28T01:28:43;0.30;99.90
25342;DHT22;13298;48.792;9.154;2023-01-28T01:31:14;0.30;99.90
25342;DHT22;13298;48.792;9.154;2023-01-28T01:33:43;0.30;99.90
25342;DHT22;13298;48.792;9.154;2023-01-28T01:36:12;0.30;99.90
25342;DHT22;13298;48.792;9.154;2023-01-28T01:38:39;0.40;99.90
25342;DHT22;13298;48.792;9.154;2023-01-28T01:41:06;0.30;99.90
25342;DHT22;13298;48.792;9.154;2023-01-28T01:43:47;0.40;99.90
25342;DHT22;13298;48.792;9.154;2023-01-28T01:49:26;0.40;99.90
25342;DHT22;13298;48.792;9.154;2023-01-28T01:51:57;0.40;99.90
25342;DHT22;13298;48.792;9.154;2023-01-28T01:54:29;0.40;99.90
25342;DHT22;13298;48.792;9.154;2023-01-28T01:56:57;0.40;99.90
25342;DHT22;13298;48.792;9.154;2023-01-28T01:59:27;0.40;99.90
25342;DHT22;13298;48.792;9.154;2023-01-28T02:01:55;0.40;99.90
25342;DHT22;13298;48.792;9.154;2023-01-28T02:04:29;0.40;99.90
25342;DHT22;13298;48.792;9.154;2023-01-28T02:06:57;0.40;99.90
25342;DHT22;13298;48.792;9.154;2023-01-28T02:09:27;0.40;99.90
25342;DHT22;13298;48.792;9.154;2023-01-28T02:12:00;0.40;99.90
25342;DHT22;13298;48.792;9.154;2023-01-28T02:14:31;0.40;99.90
25342;DHT22;13298;48.792;9.154;2023-01-28T02:17:00;0.40;99.90
25342;DHT22;13298;48.792;9.154;2023-01-28T02:29:23;0.40;99.90
25342;DHT22;13298;48.792;9.154;2023-01-28T02:32:04;0.50;99.90
25342;DHT22;13298;48.792;9.154;2023-01-28T02:37:20;0.50;99.90
25342;DHT22;13298;48.792;9.154;2023-01-28T02:40:09;0.50;99.90
25342;DHT22;13298;48.792;9.154;2023-01-28T02:42:38;0.50;99.90
25342;DHT22;13298;48.792;9.154;2023-01-28T02:45:23;0.60;99.90
25342;DHT22;13298;48.792;9.154;2023-01-28T02:48:18;0.50;99.90
25342;DHT22;13298;48.792;9.154;2023-01-28T02:50:59;0.50;99.90
25342;DHT22;13298;48.792;9.154;2023-01-28T02:53:35;0.50;99.90
25342;DHT22;13298;48.792;9.154;2023-01-28T02:59:02;0.40;99.90
25342;DHT22;13298;48.792;9.154;2023-01-28T03:05:28;0.40;99.90
25342;DHT22;13298;48.792;9.154;2023-01-28T03:08:02;0.40;99.90
25342;DHT22;13298;48.792;9.154;2023-01-28T03:10:50;0.40;99.90
25342;DHT22;13298;48.792;9.154;2023-01-28T03:13:37;0.40;99.90
25342;DHT22;13298;48.792;9.154;2023-01-28T03:16:22;0.50;99.90
25342;DHT22;13298;48.792;9.154;2023-01-28T03:19:08;0.40;99.90
25342;DHT22;13298;48.792;9.154;2023-01-28T03:21:54;0.50;99.90
25342;DHT22;13298;48.792;9.154;2023-01-28T03:24:44;0.50;99.90
25342;DHT22;13298;48.792;9.154;2023-01-28T03:27:52;0.50;99.90
25342;DHT22;13298;48.792;9.154;2023-01-28T03:30:53;0.50;99.90
25342;DHT22;13298;48.792;9.154;2023-01-28T03:33:41;0.50;99.90
25342;DHT22;13298;48.792;9.154;2023-01-28T03:36:26;0.50;99.90
25342;DHT22;13298;48.792;9.154;2023-01-28T03:39:11;0.50;99.90
25342;DHT22;13298;48.792;9.154;2023-01-28T03:41:37;0.50;99.90
25342;DHT22;13298;48.792;9.154;2023-01-28T03:44:03;0.50;99.90
25342;DHT22;13298;48.792;9.154;2023-01-28T03:46:47;0.50;99.90
25342;DHT22;13298;48.792;9.154;2023-01-28T03:49:15;0.40;99.90
25342;DHT22;13298;48.792;9.154;2023-01-28T03:51:41;0.40;99.90
25342;DHT22;13298;48.792;9.154;2023-01-28T03:54:06;0.40;99.90
25342;DHT22;13298;48.792;9.154;2023-01-28T03:56:32;0.30;99.90
25342;DHT22;13298;48.792;9.154;2023-01-28T03:59:02;0.30;99.90
25342;DHT22;13298;48.792;9.154;2023-01-28T04:01:28;0.40;99.90
25342;DHT22;13298;48.792;9.154;2023-01-28T04:03:54;0.30;99.90
25342;DHT22;13298;48.792;9.154;2023-01-28T04:06:20;0.40;99.90
25342;DHT22;13298;48.792;9.154;2023-01-28T04:08:45;0.30;99.90
25342;DHT22;13298;48.792;9.154;2023-01-28T04:11:17;0.30;99.90
25342;DHT22;13298;48.792;9.154;2023-01-28T04:13:46;0.30;99.90
25342;DHT22;13298;48.792;9.154;2023-01-28T04:16:15;0.40;99.90
25342;DHT22;13298;48.792;9.154;2023-01-28T04:18:45;0.40;99.90
25342;DHT22;13298;48.792;9.154;2023-01-28T04:21:11;0.40;99.90
25342;DHT22;13298;48.792;9.154;2023-01-28T04:23:37;0.40;99.90
25342;DHT22;13298;48.792;9.154;2023-01-28T04:26:03;0.40;99.90
25342;DHT22;13298;48.792;9.154;2023-01-28T04:28:29;0.40;99.90
25342;DHT22;13298;48.792;9.154;2023-01-28T04:30:55;0.40;99.90
25342;DHT22;13298;48.792;9.154;2023-01-28T04:33:21;0.40;99.90
25342;DHT22;13298;48.792;9.154;2023-01-28T04:35:48;0.50;99.90
25342;DHT22;13298;48.792;9.154;2023-01-28T04:38:13;0.50;99.90
25342;DHT22;13298;48.792;9.154;2023-01-28T04:40:39;0.50;99.90
25342;DHT22;13298;48.792;9.154;2023-01-28T04:43:04;0.50;99.90
25342;DHT22;13298;48.792;9.154;2023-01-28T04:45:30;0.50;99.90
25342;DHT22;13298;48.792;9.154;2023-01-28T04:47:56;0.50;99.90
25342;DHT22;13298;48.792;9.154;2023-01-28T04:50:22;0.50;99.90
25342;DHT22;13298;48.792;9.154;2023-01-28T04:52:47;0.50;99.90
25342;DHT22;13298;48.792;9.154;2023-01-28T04:55:13;0.50;99.90
25342;DHT22;13298;48.792;9.154;2023-01-28T04:57:39;0.50;99.90
25342;DHT22;13298;48.792;9.154;2023-01-28T05:00:05;0.50;99.90
25342;DHT22;13298;48.792;9.154;2023-01-28T05:02:31;0.50;99.90
25342;DHT22;13298;48.792;9.154;2023-01-28T05:04:56;0.60;99.90
25342;DHT22;13298;48.792;9.154;2023-01-28T05:07:22;0.60;99.90
25342;DHT22;13298;48.792;9.154;2023-01-28T05:09:48;0.60;99.90
25342;DHT22;13298;48.792;9.154;2023-01-28T05:12:13;0.60;99.90
25342;DHT22;13298;48.792;9.154;2023-01-28T05:14:39;0.60;99.90
25342;DHT22;13298;48.792;9.154;2023-01-28T05:17:05;0.60;99.90
25342;DHT22;13298;48.792;9.154;2023-01-28T05:19:30;0.60;99.90
25342;DHT22;13298;48.792;9.154;2023-01-28T05:21:56;0.60;99.90
25342;DHT22;13298;48.792;9.154;2023-01-28T05:24:22;0.60;99.90
25342;DHT22;13298;48.792;9.154;2023-01-28T05:26:47;0.60;99.90
25342;DHT22;13298;48.792;9.154;2023-01-28T05:29:13;0.60;99.90
25342;DHT22;13298;48.792;9.154;2023-01-28T05:31:39;0.60;99.90
25342;DHT22;13298;48.792;9.154;2023-01-28T05:34:04;0.60;99.90
25342;DHT22;13298;48.792;9.154;2023-01-28T05:36:30;0.60;99.90
25342;DHT22;13298;48.792;9.154;2023-01-28T05:38:56;0.60;99.90
25342;DHT22;13298;48.792;9.154;2023-01-28T05:41:21;0.50;99.90
25342;DHT22;13298;48.792;9.154;2023-01-28T05:43:47;0.50;99.90
25342;DHT22;13298;48.792;9.154;2023-01-28T05:46:13;0.50;99.90
25342;DHT22;13298;48.792;9.154;2023-01-28T05:48:38;0.50;99.90
25342;DHT22;13298;48.792;9.154;2023-01-28T05:51:04;0.40;99.90
25342;DHT22;13298;48.792;9.154;2023-01-28T05:53:31;0.40;99.90
25342;DHT22;13298;48.792;9.154;2023-01-28T05:55:56;0.50;99.90
25342;DHT22;13298;48.792;9.154;2023-01-28T05:58:22;0.40;99.90
25342;DHT22;13298;48.792;9.154;2023-01-28T06:00:48;0.40;99.90
25342;DHT22;13298;48.792;9.154;2023-01-28T06:03:13;0.40;99.90
25342;DHT22;13298;48.792;9.154;2023-01-28T06:05:39;0.40;99.90
25342;DHT22;13298;48.792;9.154;2023-01-28T06:08:05;0.30;99.90
25342;DHT22;13298;48.792;9.154;2023-01-28T06:10:31;0.40;99.90
25342;DHT22;13298;48.792;9.154;2023-01-28T06:12:56;0.40;99.90
25342;DHT22;13298;48.792;9.154;2023-01-28T06:15:22;0.40;99.90
25342;DHT22;13298;48.792;9.154;2023-01-28T06:17:48;0.40;99.90
25342;DHT22;13298;48.792;9.154;2023-01-28T06:20:14;0.40;99.90
25342;DHT22;13298;48.792;9.154;2023-01-28T06:22:41;0.30;99.90
25342;DHT22;13298;48.792;9.154;2023-01-28T06:25:08;0.40;99.90
25342;DHT22;13298;48.792;9.154;2023-01-28T06:27:33;0.40;99.90
25342;DHT22;13298;48.792;9.154;2023-01-28T06:30:00;0.40;99.90
25342;DHT22;13298;48.792;9.154;2023-01-28T06:32:26;0.40;99.90
25342;DHT22;13298;48.792;9.154;2023-01-28T06:34:52;0.40;99.90
25342;DHT22;13298;48.792;9.154;2023-01-28T06:37:18;0.40;99.90
25342;DHT22;13298;48.792;9.154;2023-01-28T06:39:43;0.50;99.90
25342;DHT22;13298;48.792;9.154;2023-01-28T06:42:09;0.50;99.90
25342;DHT22;13298;48.792;9.154;2023-01-28T06:44:35;0.50;99.90
25342;DHT22;13298;48.792;9.154;2023-01-28T06:47:00;0.50;99.90
25342;DHT22;13298;48.792;9.154;2023-01-28T06:49:26;0.50;99.90
25342;DHT22;13298;48.792;9.154;2023-01-28T06:51:52;0.50;99.90
25342;DHT22;13298;48.792;9.154;2023-01-28T06:54:18;0.50;99.90
25342;DHT22;13298;48.792;9.154;2023-01-28T06:56:44;0.50;99.90
25342;DHT22;13298;48.792;9.154;2023-01-28T06:59:09;0.50;99.90
25342;DHT22;13298;48.792;9.154;2023-01-28T07:01:35;0.50;99.90
25342;DHT22;13298;48.792;9.154;2023-01-28T07:04:01;0.50;99.90
25342;DHT22;13298;48.792;9.154;2023-01-28T07:06:26;0.60;99.90
25342;DHT22;13298;48.792;9.154;2023-01-28T07:08:52;0.60;99.90
25342;DHT22;13298;48.792;9.154;2023-01-28T07:11:18;0.60;99.90
25342;DHT22;13298;48.792;9.154;2023-01-28T07:13:43;0.60;99.90
25342;DHT22;13298;48.792;9.154;2023-01-28T07:16:09;0.60;99.90
25342;DHT22;13298;48.792;9.154;2023-01-28T07:18:35;0.60;99.90
25342;DHT22;13298;48.792;9.154;2023-01-28T07:21:01;0.60;99.90
25342;DHT22;13298;48.792;9.154;2023-01-28T07:23:26;0.60;99.90
25342;DHT22;13298;48.792;9.154;2023-01-28T07:25:52;0.60;99.90
25342;DHT22;13298;48.792;9.154;2023-01-28T07:28:18;0.70;99.90
25342;DHT22;13298;48.792;9.154;2023-01-28T07:30:51;0.70;99.90
25342;DHT22;13298;48.792;9.154;2023-01-28T07:33:17;0.70;99.90
25342;DHT22;13298;48.792;9.154;2023-01-28T07:35:44;0.70;99.90
25342;DHT22;13298;48.792;9.154;2023-01-28T07:38:11;0.70;99.90
25342;DHT22;13298;48.792;9.154;2023-01-28T07:40:36;0.70;99.90
25342;DHT22;13298;48.792;9.154;2023-01-28T07:43:03;0.80;99.90
25342;DHT22;13298;48.792;9.154;2023-01-28T07:45:28;0.80;99.90
25342;DHT22;13298;48.792;9.154;2023-01-28T07:48:01;0.90;99.90
25342;DHT22;13298;48.792;9.154;2023-01-28T07:50:30;0.90;99.90
25342;DHT22;13298;48.792;9.154;2023-01-28T07:52:58;0.90;99.90
25342;DHT22;13298;48.792;9.154;2023-01-28T07:55:26;1.00;99.90
25342;DHT22;13298;48.792;9.154;2023-01-28T07:57:54;1.00;99.90
25342;DHT22;13298;48.792;9.154;2023-01-28T08:00:22;1.00;99.90
25342;DHT22;13298;48.792;9.154;2023-01-28T08:02:49;1.00;99.90
25342;DHT22;13298;48.792;9.154;2023-01-28T08:05:20;1.00;99.90
25342;DHT22;13298;48.792;9.154;2023-01-28T08:07:47;1.10;99.90
25342;DHT22;13298;48.792;9.154;2023-01-28T08:10:14;1.10;99.90
25342;DHT22;13298;48.792;9.154;2023-01-28T08:12:49;1.10;99.90
25342;DHT22;13298;48.792;9.154;2023-01-28T08:15:19;1.10;99.90
25342;DHT22;13298;48.792;9.154;2023-01-28T08:17:44;1.10;99.90
25342;DHT22;13298;48.792;9.154;2023-01-28T08:20:10;1.20;99.90
25342;DHT22;13298;48.792;9.154;2023-01-28T08:22:36;1.30;99.90
25342;DHT22;13298;48.792;9.154;2023-01-28T08:25:02;1.30;99.90
25342;DHT22;13298;48.792;9.154;2023-01-28T08:27:28;1.30;99.90
25342;DHT22;13298;48.792;9.154;2023-01-28T08:29:54;1.30;99.90
25342;DHT22;13298;48.792;9.154;2023-01-28T08:32:20;1.30;99.90
25342;DHT22;13298;48.792;9.154;2023-01-28T08:34:45;1.30;99.90
25342;DHT22;13298;48.792;9.154;2023-01-28T08:37:11;1.30;99.90
25342;DHT22;13298;48.792;9.154;2023-01-28T08:39:37;1.40;99.90
25342;DHT22;13298;48.792;9.154;2023-01-28T08:42:04;1.40;99.90
25342;DHT22;13298;48.792;9.154;2023-01-28T08:44:31;1.40;99.90
25342;DHT22;13298;48.792;9.154;2023-01-28T08:46:56;1.60;99.90
25342;DHT22;13298;48.792;9.154;2023-01-28T08:49:22;1.60;99.90
25342;DHT22;13298;48.792;9.154;2023-01-28T08:51:48;1.70;99.90
25342;DHT22;13298;48.792;9.154;2023-01-28T08:54:14;1.70;99.90
25342;DHT22;13298;48.792;9.154;2023-01-28T08:56:39;1.90;99.90
25342;DHT22;13298;48.792;9.154;2023-01-28T08:59:12;2.00;99.90
25342;DHT22;13298;48.792;9.154;2023-01-28T09:01:37;2.10;99.90
25342;DHT22;13298;48.792;9.154;2023-01-28T09:04:03;2.20;99.90
25342;DHT22;13298;48.792;9.154;2023-01-28T09:06:29;2.20;99.90
25342;DHT22;13298;48.792;9.154;2023-01-28T09:08:59;2.30;99.90
25342;DHT22;13298;48.792;9.154;2023-01-28T09:11:26;2.40;99.90
25342;DHT22;13298;48.792;9.154;2023-01-28T09:13:52;2.50;99.90
25342;DHT22;13298;48.792;9.154;2023-01-28T09:16:18;2.50;99.90
25342;DHT22;13298;48.792;9.154;2023-01-28T09:18:44;2.60;99.90
25342;DHT22;13298;48.792;9.154;2023-01-28T09:21:10;2.60;99.90
25342;DHT22;13298;48.792;9.154;2023-01-28T09:23:36;2.60;99.90
25342;DHT22;13298;48.792;9.154;2023-01-28T09:26:04;2.60;99.90
25342;DHT22;13298;48.792;9.154;2023-01-28T09:28:30;2.60;99.90
25342;DHT22;13298;48.792;9.154;2023-01-28T09:31:02;2.60;99.90
25342;DHT22;13298;48.792;9.154;2023-01-28T09:33:28;2.60;99.90
25342;DHT22;13298;48.792;9.154;2023-01-28T09:35:53;2.50;99.90
25342;DHT22;13298;48.792;9.154;2023-01-28T09:38:19;2.50;99.90
25342;DHT22;13298;48.792;9.154;2023-01-28T09:40:45;2.50;99.90
25342;DHT22;13298;48.792;9.154;2023-01-28T09:43:40;2.40;99.90
25342;DHT22;13298;48.792;9.154;2023-01-28T09:46:12;2.50;99.90
25342;DHT22;13298;48.792;9.154;2023-01-28T09:48:43;2.50;99.90
25342;DHT22;13298;48.792;9.154;2023-01-28T09:51:32;2.60;99.90
25342;DHT22;13298;48.792;9.154;2023-01-28T09:54:05;2.70;99.90
25342;DHT22;13298;48.792;9.154;2023-01-28T09:56:41;2.70;99.90
25342;DHT22;13298;48.792;9.154;2023-01-28T09:59:33;2.80;99.90
25342;DHT22;13298;48.792;9.154;2023-01-28T10:04:32;2.90;99.90
25342;DHT22;13298;48.792;9.154;2023-01-28T10:07:35;2.90;99.90
25342;DHT22;13298;48.792;9.154;2023-01-28T10:10:21;2.90;99.90
25342;DHT22;13298;48.792;9.154;2023-01-28T10:13:30;2.80;99.90
25342;DHT22;13298;48.792;9.154;2023-01-28T10:18:57;2.80;99.90
25342;DHT22;13298;48.792;9.154;2023-01-28T10:21:36;2.80;99.90
25342;DHT22;13298;48.792;9.154;2023-01-28T10:24:07;2.80;99.90
25342;DHT22;13298;48.792;9.154;2023-01-28T10:26:43;2.70;99.90
25342;DHT22;13298;48.792;9.154;2023-01-28T10:29:17;2.70;99.90
25342;DHT22;13298;48.792;9.154;2023-01-28T10:31:52;2.70;99.90
25342;DHT22;13298;48.792;9.154;2023-01-28T10:34:19;2.70;99.90
25342;DHT22;13298;48.792;9.154;2023-01-28T10:36:47;2.70;99.90
25342;DHT22;13298;48.792;9.154;2023-01-28T10:39:20;2.70;99.90
25342;DHT22;13298;48.792;9.154;2023-01-28T10:41:46;2.70;99.90
25342;DHT22;13298;48.792;9.154;2023-01-28T10:44:20;2.70;99.90
25342;DHT22;13298;48.792;9.154;2023-01-28T10:46:56;2.60;99.90
25342;DHT22;13298;48.792;9.154;2023-01-28T10:49:27;2.60;99.90
25342;DHT22;13298;48.792;9.154;2023-01-28T10:51:54;2.60;99.90
25342;DHT22;13298;48.792;9.154;2023-01-28T10:54:28;2.70;99.90
25342;DHT22;13298;48.792;9.154;2023-01-28T10:56:57;2.70;99.90
25342;DHT22;13298;48.792;9.154;2023-01-28T10:59:27;2.80;99.90
25342;DHT22;13298;48.792;9.154;2023-01-28T11:02:03;2.90;99.90
25342;DHT22;13298;48.792;9.154;2023-01-28T11:04:32;2.90;99.90
25342;DHT22;13298;48.792;9.154;2023-01-28T11:07:24;2.90;99.90
25342;DHT22;13298;48.792;9.154;2023-01-28T11:09:50;2.90;99.90
25342;DHT22;13298;48.792;9.154;2023-01-28T11:12:25;3.10;99.90
25342;DHT22;13298;48.792;9.154;2023-01-28T11:17:22;3.30;99.90
25342;DHT22;13298;48.792;9.154;2023-01-28T11:19:50;3.40;99.90
25342;DHT22;13298;48.792;9.154;2023-01-28T11:22:35;3.40;99.90
25342;DHT22;13298;48.792;9.154;2023-01-28T11:25:15;3.40;99.90
25342;DHT22;13298;48.792;9.154;2023-01-28T11:27:49;3.40;99.90
25342;DHT22;13298;48.792;9.154;2023-01-28T11:32:55;3.20;99.90
25342;DHT22;13298;48.792;9.154;2023-01-28T11:35:27;3.10;99.90
25342;DHT22;13298;48.792;9.154;2023-01-28T11:37:56;3.10;99.90
25342;DHT22;13298;48.792;9.154;2023-01-28T11:40:23;3.00;99.90
25342;DHT22;13298;48.792;9.154;2023-01-28T11:42:53;3.00;99.90
25342;DHT22;13298;48.792;9.154;2023-01-28T12:03:15;2.40;99.90
25342;DHT22;13298;48.792;9.154;2023-01-28T12:05:54;2.30;99.90
25342;DHT22;13298;48.792;9.154;2023-01-28T12:08:44;2.30;99.90
25342;DHT22;13298;48.792;9.154;2023-01-28T12:17:49;2.20;99.90
25342;DHT22;13298;48.792;9.154;2023-01-28T12:28:56;2.00;99.90
25342;DHT22;13298;48.792;9.154;2023-01-28T12:37:34;1.90;99.90
25342;DHT22;13298;48.792;9.154;2023-01-28T12:40:48;1.90;99.90
25342;DHT22;13298;48.792;9.154;2023-01-28T12:43:31;1.90;99.90
25342;DHT22;13298;48.792;9.154;2023-01-28T12:57:23;2.20;99.90
25342;DHT22;13298;48.792;9.154;2023-01-28T13:00:40;2.30;99.90
25342;DHT22;13298;48.792;9.154;2023-01-28T13:05:49;2.30;99.90
25342;DHT22;13298;48.792;9.154;2023-01-28T13:08:20;2.30;99.90
25342;DHT22;13298;48.792;9.154;2023-01-28T13:10:48;2.30;99.90
25342;DHT22;13298;48.792;9.154;2023-01-28T13:13:30;2.30;99.90
25342;DHT22;13298;48.792;9.154;2023-01-28T13:15:58;2.30;99.90
25342;DHT22;13298;48.792;9.154;2023-01-28T13:21:04;2.20;99.90
25342;DHT22;13298;48.792;9.154;2023-01-28T13:28:50;2.30;99.90
25342;DHT22;13298;48.792;9.154;2023-01-28T13:31:22;2.30;99.90
25342;DHT22;13298;48.792;9.154;2023-01-28T13:39:19;2.20;99.90
25342;DHT22;13298;48.792;9.154;2023-01-28T13:41:52;2.20;99.90
25342;DHT22;13298;48.792;9.154;2023-01-28T13:47:14;2.10;99.90
25342;DHT22;13298;48.792;9.154;2023-01-28T13:49:55;2.10;99.90
25342;DHT22;13298;48.792;9.154;2023-01-28T13:52:41;2.00;99.90
25342;DHT22;13298;48.792;9.154;2023-01-28T14:00:42;2.00;99.90
25342;DHT22;13298;48.792;9.154;2023-01-28T14:15:43;2.00;99.90
25342;DHT22;13298;48.792;9.154;2023-01-28T14:18:34;2.00;99.90
25342;DHT22;13298;48.792;9.154;2023-01-28T14:21:07;2.00;99.90
25342;DHT22;13298;48.792;9.154;2023-01-28T14:23:37;2.00;99.90
25342;DHT22;13298;48.792;9.154;2023-01-28T14:26:25;2.00;99.90
25342;DHT22;13298;48.792;9.154;2023-01-28T14:32:05;2.00;99.90
25342;DHT22;13298;48.792;9.154;2023-01-28T14:34:44;2.00;99.90
25342;DHT22;13298;48.792;9.154;2023-01-28T14:37:16;2.00;99.90
25342;DHT22;13298;48.792;9.154;2023-01-28T14:39:51;2.00;99.90
25342;DHT22;13298;48.792;9.154;2023-01-28T14:42:29;2.00;99.90
25342;DHT22;13298;48.792;9.154;2023-01-28T14:53:46;2.00;99.90
25342;DHT22;13298;48.792;9.154;2023-01-28T14:56:22;2.10;99.90
25342;DHT22;13298;48.792;9.154;2023-01-28T14:59:03;2.10;99.90
25342;DHT22;13298;48.792;9.154;2023-01-28T15:01:43;2.10;99.90
25342;DHT22;13298;48.792;9.154;2023-01-28T15:06:51;2.10;99.90
25342;DHT22;13298;48.792;9.154;2023-01-28T15:09:17;2.20;99.90
25342;DHT22;13298;48.792;9.154;2023-01-28T15:11:45;2.20;99.90
25342;DHT22;13298;48.792;9.154;2023-01-28T15:14:38;2.20;99.90
25342;DHT22;13298;48.792;9.154;2023-01-28T15:17:04;2.20;99.90
25342;DHT22;13298;48.792;9.154;2023-01-28T15:19:34;2.10;99.90
25342;DHT22;13298;48.792;9.154;2023-01-28T15:22:06;2.00;99.90
25342;DHT22;13298;48.792;9.154;2023-01-28T15:24:35;2.00;99.90
25342;DHT22;13298;48.792;9.154;2023-01-28T15:27:02;2.00;99.90
25342;DHT22;13298;48.792;9.154;2023-01-28T15:29:33;2.00;99.90
25342;DHT22;13298;48.792;9.154;2023-01-28T15:32:01;2.00;99.90
25342;DHT22;13298;48.792;9.154;2023-01-28T15:34:29;1.90;99.90
25342;DHT22;13298;48.792;9.154;2023-01-28T15:36:55;1.90;99.90
25342;DHT22;13298;48.792;9.154;2023-01-28T15:39:23;1.90;99.90
25342;DHT22;13298;48.792;9.154;2023-01-28T15:42:02;1.90;99.90
25342;DHT22;13298;48.792;9.154;2023-01-28T15:44:34;1.80;99.90
25342;DHT22;13298;48.792;9.154;2023-01-28T15:47:13;1.80;99.90
25342;DHT22;13298;48.792;9.154;2023-01-28T15:49:44;1.70;99.90
25342;DHT22;13298;48.792;9.154;2023-01-28T15:52:11;1.70;99.90
25342;DHT22;13298;48.792;9.154;2023-01-28T15:54:39;1.70;99.90
25342;DHT22;13298;48.792;9.154;2023-01-28T15:57:30;1.70;99.90
25342;DHT22;13298;48.792;9.154;2023-01-28T16:02:48;1.60;99.90
25342;DHT22;13298;48.792;9.154;2023-01-28T16:05:35;1.50;99.90
25342;DHT22;13298;48.792;9.154;2023-01-28T16:11:00;1.40;99.90
25342;DHT22;13298;48.792;9.154;2023-01-28T16:13:27;1.40;99.90
25342;DHT22;13298;48.792;9.154;2023-01-28T16:15:59;1.40;99.90
25342;DHT22;13298;48.792;9.154;2023-01-28T16:18:46;1.40;99.90
25342;DHT22;13298;48.792;9.154;2023-01-28T16:21:25;1.40;99.90
25342;DHT22;13298;48.792;9.154;2023-01-28T16:27:21;1.30;99.90
25342;DHT22;13298;48.792;9.154;2023-01-28T16:29:48;1.40;99.90
25342;DHT22;13298;48.792;9.154;2023-01-28T16:34:58;1.30;99.90
25342;DHT22;13298;48.792;9.154;2023-01-28T16:37:24;1.30;99.90
25342;DHT22;13298;48.792;9.154;2023-01-28T16:39:50;1.40;99.90
25342;DHT22;13298;48.792;9.154;2023-01-28T16:42:15;1.40;99.90
25342;DHT22;13298;48.792;9.154;2023-01-28T16:44:41;1.40;99.90
25342;DHT22;13298;48.792;9.154;2023-01-28T16:47:07;1.40;99.90
25342;DHT22;13298;48.792;9.154;2023-01-28T16:49:33;1.40;99.90
25342;DHT22;13298;48.792;9.154;2023-01-28T16:52:00;1.30;99.90
25342;DHT22;13298;48.792;9.154;2023-01-28T16:54:26;1.30;99.90
25342;DHT22;13298;48.792;9.154;2023-01-28T16:56:53;1.30;99.90
25342;DHT22;13298;48.792;9.154;2023-01-28T16:59:20;1.30;99.90
25342;DHT22;13298;48.792;9.154;2023-01-28T17:01:46;1.30;99.90
25342;DHT22;13298;48.792;9.154;2023-01-28T17:04:12;1.20;99.90
25342;DHT22;13298;48.792;9.154;2023-01-28T17:06:39;1.30;99.90
25342;DHT22;13298;48.792;9.154;2023-01-28T17:09:07;1.30;99.90
25342;DHT22;13298;48.792;9.154;2023-01-28T17:11:33;1.20;99.90
25342;DHT22;13298;48.792;9.154;2023-01-28T17:14:00;1.30;99.90
25342;DHT22;13298;48.792;9.154;2023-01-28T17:16:26;1.30;99.90
25342;DHT22;13298;48.792;9.154;2023-01-28T17:18:53;1.20;99.90
25342;DHT22;13298;48.792;9.154;2023-01-28T17:21:19;1.20;99.90
25342;DHT22;13298;48.792;9.154;2023-01-28T17:23:45;1.20;99.90
25342;DHT22;13298;48.792;9.154;2023-01-28T17:26:15;1.20;99.90
25342;DHT22;13298;48.792;9.154;2023-01-28T17:28:41;1.20;99.90
25342;DHT22;13298;48.792;9.154;2023-01-28T17:31:08;1.20;99.90
25342;DHT22;13298;48.792;9.154;2023-01-28T17:33:39;1.20;99.90
25342;DHT22;13298;48.792;9.154;2023-01-28T17:36:05;1.20;99.90
25342;DHT22;13298;48.792;9.154;2023-01-28T17:38:32;1.20;99.90
25342;DHT22;13298;48.792;9.154;2023-01-28T17:41:02;1.20;99.90
25342;DHT22;13298;48.792;9.154;2023-01-28T17:43:28;1.20;99.90
25342;DHT22;13298;48.792;9.154;2023-01-28T17:45:54;1.20;99.90
25342;DHT22;13298;48.792;9.154;2023-01-28T17:48:19;1.20;99.90
25342;DHT22;13298;48.792;9.154;2023-01-28T17:50:45;1.20;99.90
25342;DHT22;13298;48.792;9.154;2023-01-28T17:53:12;1.20;99.90
25342;DHT22;13298;48.792;9.154;2023-01-28T17:55:38;1.20;99.90
25342;DHT22;13298;48.792;9.154;2023-01-28T17:58:03;1.20;99.90
25342;DHT22;13298;48.792;9.154;2023-01-28T18:00:30;1.20;99.90
25342;DHT22;13298;48.792;9.154;2023-01-28T18:02:56;1.20;99.90
25342;DHT22;13298;48.792;9.154;2023-01-28T18:05:21;1.20;99.90
25342;DHT22;13298;48.792;9.154;2023-01-28T18:08:14;1.20;99.90
25342;DHT22;13298;48.792;9.154;2023-01-28T18:10:49;1.20;99.90
25342;DHT22;13298;48.792;9.154;2023-01-28T18:13:15;1.20;99.90
25342;DHT22;13298;48.792;9.154;2023-01-28T18:15:56;1.20;99.90
25342;DHT22;13298;48.792;9.154;2023-01-28T18:18:22;1.20;99.90
25342;DHT22;13298;48.792;9.154;2023-01-28T18:21:04;1.20;99.90
25342;DHT22;13298;48.792;9.154;2023-01-28T18:23:31;1.20;99.90
25342;DHT22;13298;48.792;9.154;2023-01-28T18:26:17;1.20;99.90
25342;DHT22;13298;48.792;9.154;2023-01-28T18:28:43;1.20;99.90
25342;DHT22;13298;48.792;9.154;2023-01-28T18:31:09;1.20;99.90